Henryville, Indiana
Current Conditions -  °F | °C
As of 12:53 PM on Tuesday 21 Oct 2014 (Local Time) from KLOU Reporting Station
Scattered Clouds Scattered Clouds  
Wind Chill: 59°   Ceiling: Unl
Heat Index: 59°   Visibility: 10mi
Dew Point: 43°   Wind: 9mph
Humidity: 55%   Direction: 330°NNW
Pressure: 30.08"   Gusts: NA
Location:  38.54°N, 85.77°W
Report Text: KLOU 211653Z 33008KT 10SM SCT041 SCT050 15/06 A3008 RMK AO2 SLP186 T01500061
Loading
Personal Weather Stations






























Interactive Weather Map
Tropical Storm Tracking
New forecast layout! Learn more

10-Day Weather Forecast

Advertisements
Track Severe Weather on mobile